Time;durP1;ratioP1;P1;durP2;ratioP2;P2;SDS_P1;SDS_P2;PMS_P1;PMS_P2;Temp;Humidity;BMP_temperature;BMP_pressure;BME280_temperature;BME280_humidity;BME280_pressure;Samples;Min_cycle;Max_cycle;Signal;HPM_P1;HPM_P2
2021/12/06 00:02:17;;;;;;;87.70;62.20;;;;;;;0.54;100.00;101348.03;4937475;29;20055;-87
2021/12/06 00:04:43;;;;;;;84.07;63.65;;;;;;;0.42;100.00;101346.91;4921147;29;20047;-87
2021/12/06 00:07:12;;;;;;;86.65;63.92;;;;;;;0.46;100.00;101338.53;4926064;29;20080;-86
2021/12/06 00:09:38;;;;;;;81.88;63.10;;;;;;;0.13;100.00;101282.16;4959424;28;20035;-87
2021/12/06 00:12:04;;;;;;;87.85;65.10;;;;;;;0.54;100.00;101340.44;4942391;29;20122;-86
2021/12/06 00:14:33;;;;;;;93.30;63.80;;;;;;;0.63;100.00;101347.38;4938737;29;20034;-88
2021/12/06 00:17:01;;;;;;;79.60;62.08;;;;;;;0.33;100.00;101301.97;4946449;28;20039;-87
2021/12/06 00:19:27;;;;;;;89.75;63.28;;;;;;;0.46;100.00;101333.47;4962475;28;20008;-86
2021/12/06 00:21:53;;;;;;;83.90;64.97;;;;;;;0.57;100.00;101347.22;4947167;29;20035;-85
2021/12/06 00:24:19;;;;;;;81.35;62.45;;;;;;;0.52;100.00;101326.88;4931426;28;20058;-87
2021/12/06 00:26:44;;;;;;;88.95;65.78;;;;;;;0.34;100.00;101299.47;4954029;28;20097;-87
2021/12/06 00:29:10;;;;;;;83.35;63.60;;;;;;;0.49;100.00;101334.41;4947810;28;20054;-86
2021/12/06 00:31:37;;;;;;;91.75;64.63;;;;;;;0.16;100.00;101304.97;4970104;28;20117;-86
2021/12/06 00:34:06;;;;;;;94.57;64.75;;;;;;;0.59;100.00;101355.72;4954025;28;20031;-87
2021/12/06 00:36:38;;;;;;;94.95;64.45;;;;;;;0.44;100.00;101315.72;4936917;29;20030;-86
2021/12/06 00:39:05;;;;;;;93.95;66.80;;;;;;;0.23;100.00;101305.13;4944225;28;20063;-87
2021/12/06 00:41:34;;;;;;;84.47;63.67;;;;;;;0.52;100.00;101349.66;4931038;29;20035;-87
2021/12/06 00:44:03;;;;;;;88.30;63.75;;;;;;;0.43;100.00;101329.22;4927781;28;20023;-88
2021/12/06 00:46:34;;;;;;;83.68;62.80;;;;;;;0.35;100.00;101325.63;4918690;28;20443;-89
2021/12/06 00:49:00;;;;;;;78.90;62.50;;;;;;;0.46;100.00;101328.41;4928523;29;20513;-88
2021/12/06 00:51:28;;;;;;;82.40;62.30;;;;;;;0.71;100.00;101370.31;4926033;29;20027;-88
2021/12/06 00:53:57;;;;;;;84.85;64.82;;;;;;;0.53;100.00;101340.41;4919162;29;20321;-88
2021/12/06 00:56:28;;;;;;;84.53;63.17;;;;;;;0.64;100.00;101349.09;4928657;29;20023;-88
2021/12/06 00:58:57;;;;;;;80.10;62.42;;;;;;;0.49;100.00;101310.75;4929371;29;20027;-88
2021/12/06 01:01:33;;;;;;;87.28;65.43;;;;;;;0.79;100.00;101353.63;4930962;29;20034;-86
2021/12/06 01:03:58;;;;;;;81.80;63.05;;;;;;;0.73;100.00;101361.06;4932631;28;20024;-87
2021/12/06 01:06:33;;;;;;;76.72;61.10;;;;;;;0.68;100.00;101352.53;4956076;28;20033;-87
2021/12/06 01:08:59;;;;;;;79.82;62.55;;;;;;;0.74;100.00;101378.00;4949572;29;20096;-88
2021/12/06 01:11:27;;;;;;;80.67;61.13;;;;;;;0.65;100.00;101370.19;4940463;29;20039;-86
2021/12/06 01:13:53;;;;;;;83.05;63.70;;;;;;;0.69;100.00;101367.75;4957345;29;20015;-87
2021/12/06 01:16:19;;;;;;;82.40;62.70;;;;;;;0.79;100.00;101396.66;4939781;29;20038;-87
2021/12/06 01:18:44;;;;;;;82.80;62.65;;;;;;;0.61;100.00;101359.13;4948580;28;20276;-86
2021/12/06 01:21:20;;;;;;;84.63;63.20;;;;;;;0.79;100.00;101394.13;4950586;29;20039;-88
2021/12/06 01:29:49;;;;;;;77.72;62.20;;;;;;;0.44;100.00;101356.22;4954211;28;20062;-87
2021/12/06 01:32:26;;;;;;;83.45;61.25;;;;;;;0.70;100.00;101399.00;4936687;29;20028;-88
2021/12/06 01:40:06;;;;;;;87.10;63.22;;;;;;;0.84;100.00;101422.97;4953261;29;20046;-87
2021/12/06 01:42:31;;;;;;;;;;;;;;;0.89;100.00;101431.53;4937465;29;20055;-86
2021/12/06 01:44:58;;;;;;;81.32;62.65;;;;;;;0.86;100.00;101426.38;4938374;29;19921;-85
2021/12/06 01:47:29;;;;;;;77.80;63.28;;;;;;;0.82;100.00;101419.53;4944033;29;20011;-86
2021/12/06 01:49:57;;;;;;;78.93;62.78;;;;;;;0.82;100.00;101424.59;4963793;28;20027;-88
2021/12/06 01:52:32;;;;;;;86.10;63.17;;;;;;;0.81;100.00;101422.91;4933628;29;20024;-87
2021/12/06 01:54:59;;;;;;;80.95;63.17;;;;;;;0.65;100.00;101400.56;4942541;28;20059;-89
2021/12/06 01:57:27;;;;;;;85.60;62.28;;;;;;;0.74;100.00;101421.03;4949153;28;20070;-88
2021/12/06 01:59:53;;;;;;;88.28;65.22;;;;;;;0.55;100.00;101389.38;4948635;28;20087;-89
2021/12/06 02:02:19;;;;;;;87.50;63.90;;;;;;;0.56;100.00;101395.28;4964465;28;20015;-87
2021/12/06 02:04:45;;;;;;;88.28;65.57;;;;;;;0.76;100.00;101429.53;4958519;28;20108;-87
2021/12/06 02:07:16;;;;;;;93.97;63.87;;;;;;;0.43;100.00;101367.19;4945400;28;20031;-90
2021/12/06 02:09:49;;;;;;;93.38;66.22;;;;;;;0.59;100.00;101401.31;4955898;28;20023;-89
2021/12/06 02:12:15;;;;;;;84.50;62.85;;;;;;;0.69;100.00;101412.50;4975238;28;20027;-88
2021/12/06 02:14:55;;;;;;;86.28;62.88;;;;;;;0.74;100.00;101426.09;4945724;29;20038;-88
2021/12/06 02:17:57;;;;;;;83.40;62.35;;;;;;;0.53;100.00;101396.94;4940980;28;20118;-87
2021/12/06 02:20:29;;;;;;;83.63;63.80;;;;;;;0.70;100.00;101434.44;4982605;28;20070;-89
2021/12/06 02:23:04;;;;;;;89.78;64.95;;;;;;;0.35;100.00;101367.00;4967406;28;20050;-89
2021/12/06 02:25:39;;;;;;;79.40;62.95;;;;;;;0.46;100.00;101364.72;4947545;28;20144;-87
2021/12/06 02:28:07;;;;;;;92.88;64.90;;;;;;;0.63;100.00;101384.50;4967179;28;20109;-88
2021/12/06 02:30:45;;;;;;;86.22;62.78;;;;;;;0.67;100.00;101397.25;4960775;28;20015;-88
2021/12/06 02:33:21;;;;;;;85.90;63.97;;;;;;;0.56;100.00;101386.03;4947506;28;20035;-88
2021/12/06 02:35:47;;;;;;;92.67;64.97;;;;;;;0.67;100.00;101399.78;4963636;28;20087;-88
2021/12/06 02:38:37;;;;;;;91.55;65.43;;;;;;;0.60;100.00;101400.47;4940937;28;20319;-87
2021/12/06 02:41:08;;;;;;;82.10;63.40;;;;;;;0.47;100.00;101401.84;4930119;29;20035;-88
2021/12/06 02:43:48;;;;;;;82.60;64.47;;;;;;;0.54;100.00;101418.03;4930704;29;20394;-87
2021/12/06 02:46:46;;;;;;;89.43;63.47;;;;;;;0.63;100.00;101437.66;4925742;28;20035;-87
2021/12/06 02:49:14;;;;;;;80.43;62.90;;;;;;;0.33;100.00;101406.63;4924403;29;20447;-87
2021/12/06 02:52:20;;;;;;;86.90;64.50;;;;;;;0.45;100.00;101427.97;4952419;29;20034;-88
2021/12/06 02:55:09;;;;;;;80.75;63.50;;;;;;;0.50;100.00;101436.53;4954528;29;20040;-87
2021/12/06 02:57:57;;;;;;;81.97;63.83;;;;;;;0.17;100.00;101415.47;4958769;29;20027;-88
2021/12/06 03:00:31;;;;;;;85.80;63.75;;;;;;;-0.02;100.00;101380.41;4892639;29;20024;-89
2021/12/06 03:02:57;;;;;;;85.95;64.88;;;;;;;0.01;100.00;101384.72;4955251;28;20042;-90
2021/12/06 03:05:25;;;;;;;81.17;61.87;;;;;;;0.18;100.00;101411.28;4946854;29;20039;-90
2021/12/06 03:07:57;;;;;;;84.13;63.67;;;;;;;0.17;100.00;101412.94;4946981;28;20012;-91
2021/12/06 03:10:27;;;;;;;89.70;63.60;;;;;;;0.24;100.00;101429.16;4946780;28;20046;-90
2021/12/06 03:13:01;;;;;;;90.45;64.50;;;;;;;0.17;100.00;101419.69;4942567;28;20043;-87
2021/12/06 03:15:27;;;;;;;85.13;64.25;;;;;;;0.15;100.00;101417.13;4940979;28;20055;-87
2021/12/06 03:17:53;;;;;;;82.60;63.60;;;;;;;0.25;100.00;101435.06;4947167;28;20031;-88
2021/12/06 03:20:29;;;;;;;77.87;63.00;;;;;;;0.11;100.00;101449.88;4934967;28;20042;-86
2021/12/06 03:23:23;;;;;;;78.57;61.92;;;;;;;-0.13;100.00;101432.41;4929038;29;20063;-86
2021/12/06 03:26:01;;;;;;;85.63;64.10;;;;;;;-0.09;100.00;101431.69;4927016;29;20031;-87
2021/12/06 03:28:57;;;;;;;80.57;63.85;;;;;;;-0.01;100.00;101432.72;4929301;29;20479;-86
2021/12/06 03:31:23;;;;;;;83.20;62.47;;;;;;;0.02;100.00;101432.81;4944853;28;20049;-87
2021/12/06 03:33:56;;;;;;;87.82;64.85;;;;;;;0.08;100.00;101445.63;4949712;29;20042;-86
2021/12/06 03:36:31;;;;;;;82.63;62.75;;;;;;;0.06;100.00;101444.69;4957824;28;20399;-86
2021/12/06 03:39:00;;;;;;;85.13;64.68;;;;;;;0.16;100.00;101471.97;4936197;28;20062;-86
2021/12/06 03:41:28;;;;;;;89.10;63.20;;;;;;;-0.13;100.00;101424.81;4931671;29;20023;-86
2021/12/06 03:43:54;;;;;;;85.65;64.47;;;;;;;0.08;100.00;101453.22;4945264;29;20047;-86
2021/12/06 05:48:32;;;;;;;69.55;57.58;;;;;;;0.28;100.00;101595.41;4962159;29;20060;-87
2021/12/06 05:51:42;;;;;;;67.28;56.47;;;;;;;0.10;100.00;101602.50;4971571;29;20411;-84
2021/12/06 06:15:39;;;;;;;74.13;57.53;;;;;;;0.11;100.00;101621.91;4968041;28;20030;-84
2021/12/06 06:22:09;;;;;;;68.03;55.65;;;;;;;0.16;100.00;101628.84;4960943;28;20045;-86
2021/12/06 06:25:38;;;;;;;;;;;;;;;;;;;;;
2021/12/06 06:28:24;;;;;;;;;;;;;;;0.21;100.00;101638.22;4912126;29;20253;-88
2021/12/06 06:31:42;;;;;;;;;;;;;;;;;;;;;
2021/12/06 06:34:51;;;;;;;68.78;56.45;;;;;;;0.10;100.00;101622.75;4855707;29;20220;-85
2021/12/06 06:37:26;;;;;;;78.65;56.88;;;;;;;0.24;100.00;101641.72;4831882;29;20034;-89
2021/12/06 06:40:17;;;;;;;;;;;;;;;;;;;;;
2021/12/06 06:57:02;;;;;;;65.10;55.90;;;;;;;0.24;100.00;101648.44;4952081;28;20030;-86
2021/12/06 06:59:30;;;;;;;62.45;53.97;;;;;;;0.22;100.00;101652.59;4976411;28;20026;-88
2021/12/06 07:01:56;;;;;;;59.65;52.80;;;;;;;0.12;100.00;101642.22;4944025;28;20020;-87
2021/12/06 07:04:38;;;;;;;65.93;55.60;;;;;;;-0.02;100.00;101628.28;4976768;28;20038;-92
2021/12/06 07:07:35;;;;;;;75.63;57.55;;;;;;;0.07;100.00;101623.50;4959301;28;20039;-90
2021/12/06 07:10:14;;;;;;;74.60;59.03;;;;;;;0.06;100.00;101626.84;4982106;28;20118;-89
2021/12/06 07:12:45;;;;;;;67.65;56.22;;;;;;;0.23;100.00;101654.31;4948186;29;20134;-89
2021/12/06 07:15:13;;;;;;;67.53;56.53;;;;;;;0.20;100.00;101654.22;4937848;29;20015;-88
2021/12/06 07:17:39;;;;;;;61.20;54.53;;;;;;;0.04;100.00;101637.75;4972493;28;20047;-86
2021/12/06 07:20:32;;;;;;;65.10;54.00;;;;;;;0.22;100.00;101665.25;4975101;28;20103;-85
2021/12/06 07:22:58;;;;;;;68.22;57.15;;;;;;;0.22;100.00;101658.50;4959352;28;20019;-86
2021/12/06 07:25:23;;;;;;;68.45;56.30;;;;;;;0.19;100.00;101658.41;4974003;28;20023;-86
2021/12/06 07:27:51;;;;;;;67.87;55.33;;;;;;;0.24;100.00;101656.03;4972540;28;20050;-88
2021/12/06 07:30:17;;;;;;;66.07;55.17;;;;;;;0.18;100.00;101641.53;4971416;28;20022;-87
2021/12/06 07:32:43;;;;;;;66.63;55.25;;;;;;;0.18;100.00;101657.56;4954267;29;20023;-86
2021/12/06 07:35:10;;;;;;;64.30;55.28;;;;;;;0.10;100.00;101643.00;4937230;28;20107;-86
2021/12/06 07:37:36;;;;;;;64.82;54.25;;;;;;;0.06;100.00;101639.50;4959460;28;20083;-86
2021/12/06 07:40:05;;;;;;;64.38;56.13;;;;;;;0.05;100.00;101649.56;4958547;28;20028;-85
2021/12/06 07:42:31;;;;;;;63.78;54.63;;;;;;;0.06;100.00;101662.25;4959551;28;20079;-86
2021/12/06 07:44:56;;;;;;;73.00;55.93;;;;;;;-0.17;100.00;101627.88;4957732;29;20031;-87
2021/12/06 07:47:22;;;;;;;64.07;54.53;;;;;;;0.04;100.00;101655.47;4968058;28;20316;-87
2021/12/06 07:49:47;;;;;;;57.83;52.22;;;;;;;0.08;100.00;101663.19;4929193;29;20055;-88
2021/12/06 07:52:13;;;;;;;62.73;53.93;;;;;;;0.06;100.00;101658.88;4942989;29;20032;-86
2021/12/06 07:54:39;;;;;;;68.23;56.63;;;;;;;-0.17;100.00;101627.88;4959790;28;20055;-88
2021/12/06 07:57:06;;;;;;;60.90;54.13;;;;;;;-0.09;100.00;101628.94;4941295;29;20032;-86
2021/12/06 07:59:33;;;;;;;57.10;50.88;;;;;;;-0.01;100.00;101652.78;4925935;29;20056;-87
2021/12/06 08:01:59;;;;;;;61.33;54.60;;;;;;;-0.03;100.00;101642.63;4959120;28;20114;-87
2021/12/06 08:04:24;;;;;;;65.90;55.17;;;;;;;0.08;100.00;101657.25;4948022;29;20479;-88
2021/12/06 08:06:49;;;;;;;66.70;55.57;;;;;;;0.07;100.00;101653.88;4969097;29;20286;-88
2021/12/06 08:09:15;;;;;;;68.37;55.67;;;;;;;0.16;100.00;101654.16;4971731;28;20047;-88
2021/12/06 08:11:41;;;;;;;60.27;53.57;;;;;;;-0.02;100.00;101640.94;4974227;28;20035;-86
2021/12/06 08:14:07;;;;;;;61.03;54.63;;;;;;;-0.01;100.00;101628.34;4958656;28;20008;-85
2021/12/06 08:16:39;;;;;;;54.88;49.55;;;;;;;0.07;100.00;101653.88;4974766;28;20039;-86
2021/12/06 08:19:05;;;;;;;70.95;54.47;;;;;;;0.14;100.00;101657.44;4958422;28;20060;-84
2021/12/06 08:21:31;;;;;;;69.03;54.92;;;;;;;0.23;100.00;101660.22;4958428;28;20048;-86
2021/12/06 08:23:58;;;;;;;62.73;53.67;;;;;;;0.14;100.00;101648.19;4942483;29;20012;-86
2021/12/06 08:26:27;;;;;;;73.05;54.25;;;;;;;0.17;100.00;101660.06;4974054;28;20016;-86
2021/12/06 08:28:53;;;;;;;70.00;55.83;;;;;;;0.13;100.00;101664.16;4954806;29;20056;-86
2021/12/06 08:31:18;;;;;;;;;;;;;;;0.20;100.00;101659.28;4951427;29;20019;-87
2021/12/06 08:33:45;;;;;;;67.60;54.03;;;;;;;0.15;100.00;101656.63;4966566;29;19914;-86
2021/12/06 08:36:12;;;;;;;62.97;55.25;;;;;;;0.16;100.00;101663.41;4948684;29;20027;-86
2021/12/06 08:38:38;;;;;;;64.43;55.00;;;;;;;0.13;100.00;101659.13;4936398;29;20044;-86
2021/12/06 08:41:04;;;;;;;;;;;;;;;0.17;100.00;101660.91;4933712;29;20096;-87
2021/12/06 08:43:30;;;;;;;64.38;54.08;;;;;;;0.16;100.00;101650.75;4958905;29;19910;-87
2021/12/06 08:45:59;;;;;;;61.65;54.33;;;;;;;0.16;100.00;101649.09;4926793;29;20055;-88
2021/12/06 08:48:27;;;;;;;65.50;55.55;;;;;;;-0.03;100.00;101636.72;4947265;29;20046;-88
2021/12/06 08:50:55;;;;;;;58.22;52.22;;;;;;;0.07;100.00;101633.63;4944555;29;20059;-87
2021/12/06 08:53:21;;;;;;;63.42;56.45;;;;;;;0.16;100.00;101631.38;4963584;28;20118;-87
2021/12/06 08:55:46;;;;;;;67.20;55.20;;;;;;;0.16;100.00;101621.25;4944538;29;20618;-88
2021/12/06 08:58:12;;;;;;;65.67;55.57;;;;;;;0.22;100.00;101623.06;4944873;29;20038;-87
2021/12/06 09:00:37;;;;;;;60.97;54.27;;;;;;;0.13;100.00;101617.78;4944604;29;20451;-87
2021/12/06 09:03:03;;;;;;;62.83;55.23;;;;;;;0.23;100.00;101629.88;4960388;28;20020;-87
2021/12/06 09:05:33;;;;;;;64.72;55.65;;;;;;;0.33;100.00;101625.91;4954011;28;20028;-87
2021/12/06 09:07:59;;;;;;;64.88;55.95;;;;;;;0.09;100.00;101621.88;4960751;29;20055;-86
2021/12/06 09:10:24;;;;;;;69.65;55.75;;;;;;;0.30;100.00;101630.88;4976471;28;20049;-86
2021/12/06 09:12:50;;;;;;;67.50;54.40;;;;;;;0.11;100.00;101612.69;4957103;29;20032;-86
2021/12/06 09:15:18;;;;;;;66.70;55.70;;;;;;;0.16;100.00;101631.38;4955757;29;20016;-87
2021/12/06 09:17:44;;;;;;;60.20;53.45;;;;;;;0.18;99.83;101623.81;4956024;29;20148;-86
2021/12/06 09:20:12;;;;;;;57.20;51.03;;;;;;;0.26;99.58;101631.63;4946282;29;20058;-87
2021/12/06 09:22:38;;;;;;;63.55;53.78;;;;;;;0.34;99.51;101632.69;4945619;29;20091;-85
2021/12/06 09:25:05;;;;;;;57.30;51.47;;;;;;;0.24;99.22;101635.78;4946078;29;20052;-86
2021/12/06 09:27:30;;;;;;;64.40;55.05;;;;;;;0.04;99.38;101617.50;4914350;29;20023;-87
2021/12/06 09:29:57;;;;;;;60.37;53.73;;;;;;;0.29;99.27;101637.63;4929720;29;20028;-86
2021/12/06 09:32:23;;;;;;;59.28;52.90;;;;;;;0.14;98.85;101644.78;4962112;28;20036;-87
2021/12/06 09:34:49;;;;;;;62.28;55.45;;;;;;;0.03;99.03;101636.88;4950740;29;20034;-88
2021/12/06 09:37:16;;;;;;;63.17;54.60;;;;;;;0.20;98.72;101623.88;4950838;29;20495;-87
2021/12/06 09:39:41;;;;;;;;;;;;;;;0.08;99.47;101645.47;4948769;29;20028;-88
2021/12/06 09:42:07;;;;;;;60.30;53.35;;;;;;;0.27;98.91;101648.50;4962062;28;19921;-87
2021/12/06 09:44:32;;;;;;;71.43;57.10;;;;;;;0.23;98.69;101644.19;4948417;29;20047;-88
2021/12/06 09:46:58;;;;;;;59.60;53.13;;;;;;;0.18;98.33;101654.19;4958521;29;20301;-86
2021/12/06 09:49:24;;;;;;;68.60;55.63;;;;;;;0.16;97.71;101646.56;4958067;29;20032;-87
2021/12/06 09:51:52;;;;;;;70.03;56.15;;;;;;;0.24;98.27;101645.91;4944642;28;20095;-85
2021/12/06 09:54:19;;;;;;;74.45;55.90;;;;;;;0.26;97.44;101634.16;4960513;28;20022;-86
2021/12/06 09:56:46;;;;;;;63.13;54.13;;;;;;;0.49;96.64;101642.38;4976111;28;20039;-86
2021/12/06 09:59:14;;;;;;;70.15;56.75;;;;;;;0.13;96.72;101641.41;4960634;28;20016;-85
2021/12/06 10:01:44;;;;;;;70.97;56.55;;;;;;;0.32;96.71;101636.88;4966028;28;20027;-87
2021/12/06 10:04:11;;;;;;;68.63;56.35;;;;;;;0.37;97.17;101637.84;4959914;28;20029;-86
2021/12/06 10:06:38;;;;;;;66.32;56.00;;;;;;;0.47;96.15;101649.94;4959579;28;20028;-88
2021/12/06 10:09:06;;;;;;;56.53;50.45;;;;;;;0.38;95.72;101637.00;4950722;29;20059;-88
2021/12/06 10:11:32;;;;;;;61.20;54.55;;;;;;;0.46;95.30;101655.84;4948830;29;20027;-87
2021/12/06 10:13:57;;;;;;;64.20;55.53;;;;;;;0.20;95.99;101644.97;4963452;28;20075;-87
2021/12/06 10:16:23;;;;;;;64.53;55.17;;;;;;;0.62;96.08;101648.63;4964371;28;20277;-87
2021/12/06 10:18:49;;;;;;;70.72;55.97;;;;;;;0.78;95.06;101650.78;4960602;28;20039;-88
2021/12/06 10:21:15;;;;;;;64.97;56.83;;;;;;;0.71;93.69;101638.75;4928092;29;20484;-86
2021/12/06 10:23:43;;;;;;;66.50;56.50;;;;;;;0.65;91.54;101659.72;4949299;29;20261;-88
2021/12/06 10:26:11;;;;;;;68.13;56.33;;;;;;;0.41;92.22;101659.88;4937250;29;20029;-87
2021/12/06 10:28:39;;;;;;;71.15;57.42;;;;;;;0.52;93.31;101663.56;4977227;28;20039;-87
2021/12/06 10:31:06;;;;;;;69.47;56.85;;;;;;;0.53;93.51;101639.97;4961205;29;20023;-87
2021/12/06 10:33:34;;;;;;;62.15;55.47;;;;;;;0.54;94.98;101667.03;4948444;29;20031;-87
2021/12/06 10:36:06;;;;;;;71.72;57.47;;;;;;;0.42;95.07;101648.94;4964582;28;20019;-87
2021/12/06 10:38:34;;;;;;;68.55;57.63;;;;;;;0.26;94.80;101649.34;4948600;29;20027;-87
2021/12/06 10:41:11;;;;;;;74.50;58.60;;;;;;;0.32;94.20;101621.69;4949568;29;20034;-87
2021/12/06 10:43:38;;;;;;;73.38;57.30;;;;;;;0.20;94.92;101639.06;4949578;29;20019;-88
2021/12/06 10:46:06;;;;;;;68.70;57.97;;;;;;;0.13;96.61;101633.81;4950178;29;20024;-86
2021/12/06 10:48:34;;;;;;;79.05;58.75;;;;;;;0.08;96.82;101620.19;4955844;29;20008;-87
2021/12/06 10:51:01;;;;;;;75.38;58.17;;;;;;;0.03;96.84;101608.19;4984281;28;20042;-86
2021/12/06 10:53:28;;;;;;;72.30;58.50;;;;;;;0.24;95.43;101600.34;4946128;29;20034;-88
2021/12/06 10:55:56;;;;;;;75.30;59.75;;;;;;;0.41;95.35;101589.00;4931907;29;20023;-87
2021/12/06 10:58:24;;;;;;;74.28;58.40;;;;;;;0.22;93.34;101587.66;4945138;29;20035;-87
2021/12/06 11:01:06;;;;;;;70.78;60.70;;;;;;;0.16;93.50;101562.22;4929361;29;20039;-87
2021/12/06 11:03:53;;;;;;;71.43;59.40;;;;;;;0.30;92.69;101572.69;4969377;28;20078;-87
2021/12/06 11:06:23;;;;;;;65.35;56.78;;;;;;;0.23;92.35;101558.16;4946831;29;20051;-87
2021/12/06 11:08:51;;;;;;;68.30;58.08;;;;;;;0.16;93.64;101555.47;4961173;28;20070;-87
2021/12/06 11:11:20;;;;;;;67.25;56.22;;;;;;;0.16;92.42;101552.94;4944915;29;20027;-88
2021/12/06 11:13:51;;;;;;;68.22;55.38;;;;;;;0.03;94.15;101550.88;4963389;28;20072;-87
2021/12/06 11:16:27;;;;;;;64.57;56.55;;;;;;;-0.04;93.67;101559.97;4930123;29;20091;-86
2021/12/06 11:18:58;;;;;;;72.28;59.50;;;;;;;-0.11;94.70;101567.31;4962009;29;20034;-87
2021/12/06 11:21:46;;;;;;;80.88;61.42;;;;;;;0.05;95.54;101574.56;4961208;29;20031;-87
2021/12/06 11:24:22;;;;;;;74.15;59.72;;;;;;;0.00;96.53;101555.88;4961209;28;20023;-86
2021/12/06 11:26:51;;;;;;;80.65;60.58;;;;;;;0.24;95.59;101575.91;4965017;28;20039;-87
2021/12/06 11:29:32;;;;;;;80.40;59.83;;;;;;;0.28;95.20;101566.72;4945280;29;20091;-88
2021/12/06 11:32:07;;;;;;;78.07;58.78;;;;;;;0.08;95.52;101562.00;4946113;29;20034;-88
2021/12/06 11:34:43;;;;;;;82.82;61.80;;;;;;;0.06;95.69;101560.22;4952101;28;20035;-88
2021/12/06 11:37:35;;;;;;;78.15;60.25;;;;;;;-0.08;95.33;101547.19;4960135;29;20040;-87
2021/12/06 11:40:05;;;;;;;77.50;61.00;;;;;;;0.04;97.18;101577.88;4937119;29;20035;-87
2021/12/06 11:42:31;;;;;;;78.55;60.85;;;;;;;0.13;96.72;101583.22;4928744;29;20035;-88
2021/12/06 11:44:57;;;;;;;73.90;58.78;;;;;;;0.08;95.78;101572.09;4930144;29;20083;-87
2021/12/06 11:47:22;;;;;;;67.63;57.80;;;;;;;0.09;96.86;101585.59;4945767;29;20042;-87
2021/12/06 11:49:52;;;;;;;87.03;63.73;;;;;;;-0.15;98.10;101570.59;4928369;29;20030;-87
2021/12/06 11:52:23;;;;;;;70.70;58.20;;;;;;;0.03;96.94;101577.84;4961742;29;20019;-87
2021/12/06 11:54:56;;;;;;;88.15;64.95;;;;;;;0.08;96.31;101573.75;4948945;28;20049;-86
2021/12/06 11:57:31;;;;;;;70.65;58.00;;;;;;;0.07;96.62;101564.47;4946534;29;20027;-87
2021/12/06 12:00:09;;;;;;;84.97;62.72;;;;;;;-0.17;94.93;101569.72;4931006;29;20098;-86
2021/12/06 12:02:36;;;;;;;77.88;59.63;;;;;;;-0.06;94.28;101575.94;4947113;29;20062;-87
2021/12/06 12:05:17;;;;;;;80.43;60.80;;;;;;;-0.23;94.42;101558.56;4931475;29;20049;-87
2021/12/06 12:07:56;;;;;;;69.63;56.80;;;;;;;-0.11;94.63;101562.25;4945763;29;20026;-87
2021/12/06 12:10:32;;;;;;;89.38;63.30;;;;;;;-0.10;94.47;101558.94;4977573;28;20007;-86
2021/12/06 12:12:58;;;;;;;83.30;63.97;;;;;;;-0.17;94.77;101562.13;4977978;28;20012;-86
2021/12/06 12:15:24;;;;;;;69.03;57.57;;;;;;;-0.07;94.74;101553.97;4977435;28;20039;-86
2021/12/06 12:17:51;;;;;;;88.63;61.38;;;;;;;-0.01;94.14;101560.03;4961465;28;20102;-85
2021/12/06 12:20:17;;;;;;;77.75;61.13;;;;;;;-0.06;93.88;101553.16;4948802;28;20031;-87
2021/12/06 12:22:49;;;;;;;65.07;57.03;;;;;;;-0.12;93.96;101542.88;4949140;29;20025;-87
2021/12/06 12:25:22;;;;;;;81.30;59.22;;;;;;;-0.11;93.64;101553.03;4955951;29;20027;-87
2021/12/06 12:30:49;;;;;;;84.07;62.88;;;;;;;-0.16;94.37;101538.53;4971883;28;20058;-86
2021/12/06 12:33:18;;;;;;;86.07;63.15;;;;;;;-0.10;94.52;101538.69;4997472;28;20095;-87
2021/12/06 12:35:44;;;;;;;76.75;58.10;;;;;;;-0.06;94.76;101550.63;4949739;28;20023;-86
2021/12/06 12:38:11;;;;;;;94.68;63.85;;;;;;;-0.06;94.49;101522.81;4980076;28;20026;-88
2021/12/06 12:40:46;;;;;;;93.15;65.68;;;;;;;-0.14;94.37;101544.47;4985964;28;20027;-87
2021/12/06 12:43:16;;;;;;;89.05;64.68;;;;;;;-0.26;95.40;101542.47;4966715;29;20066;-88
2021/12/06 12:45:44;;;;;;;85.03;63.63;;;;;;;-0.24;95.05;101528.19;4965519;28;20070;-88
2021/12/06 12:48:10;;;;;;;81.03;60.47;;;;;;;0.01;94.66;101551.66;4966827;29;20030;-87
2021/12/06 12:50:35;;;;;;;;;;;;;;;-0.04;93.68;101554.06;4951120;29;20126;-86
2021/12/06 12:53:09;;;;;;;94.90;65.15;;;;;;;-0.10;93.25;101531.13;4966765;29;19938;-87
2021/12/06 12:55:41;;;;;;;88.60;62.72;;;;;;;-0.14;93.63;101541.94;4938507;29;20042;-87
2021/12/06 12:58:13;;;;;;;97.38;65.22;;;;;;;-0.02;93.87;101540.66;4958330;29;20031;-87
2021/12/06 13:00:57;;;;;;;85.80;63.00;;;;;;;-0.02;95.00;101532.19;4974901;28;20035;-86
2021/12/06 13:03:37;;;;;;;84.82;61.72;;;;;;;-0.02;93.57;101537.25;4954206;29;20027;-87
2021/12/06 13:06:21;;;;;;;92.78;66.68;;;;;;;-0.24;93.27;101521.47;4970980;28;20023;-87
2021/12/06 13:08:49;;;;;;;90.40;65.75;;;;;;;-0.16;93.45;101524.19;4971807;29;20083;-86
2021/12/06 13:11:14;;;;;;;91.47;63.20;;;;;;;0.03;92.28;101519.66;4958079;29;20007;-86
2021/12/06 13:13:46;;;;;;;88.83;64.67;;;;;;;-0.18;92.97;101498.03;4948312;28;20023;-87
2021/12/06 13:16:47;;;;;;;85.03;62.42;;;;;;;-0.15;91.84;101509.91;4948980;28;20038;-85
2021/12/06 13:21:53;;;;;;;86.88;62.15;;;;;;;-0.11;92.68;101521.81;4996192;28;20039;-86
2021/12/06 13:24:18;;;;;;;87.70;61.47;;;;;;;-0.01;92.08;101518.72;4947973;28;20016;-86
2021/12/06 13:26:49;;;;;;;82.30;61.03;;;;;;;-0.12;91.76;101515.06;4979997;28;20035;-86
2021/12/06 13:29:19;;;;;;;84.57;61.88;;;;;;;-0.09;92.37;101505.03;4972333;28;20035;-87
2021/12/06 13:31:44;;;;;;;80.60;61.50;;;;;;;-0.03;92.00;101505.19;4934476;29;20087;-87
2021/12/06 13:34:23;;;;;;;83.00;61.60;;;;;;;-0.12;91.36;101515.06;4956029;29;20022;-87
2021/12/06 13:36:51;;;;;;;88.75;65.18;;;;;;;-0.08;91.59;101511.78;4948041;28;20039;-87
2021/12/06 13:39:29;;;;;;;90.30;63.90;;;;;;;0.06;92.00;101518.06;4948197;29;20015;-86
2021/12/06 13:41:54;;;;;;;89.15;62.85;;;;;;;-0.06;92.07;101503.44;4972151;28;20027;-88
2021/12/06 13:44:22;;;;;;;90.50;64.07;;;;;;;-0.10;91.47;101518.47;4938797;29;20127;-86
2021/12/06 13:46:51;;;;;;;81.18;60.40;;;;;;;-0.04;91.10;101506.00;4946190;29;20090;-85
2021/12/06 13:49:23;;;;;;;91.05;64.47;;;;;;;-0.08;91.33;101509.25;4961644;29;20042;-86
2021/12/06 13:51:57;;;;;;;78.82;61.08;;;;;;;-0.04;91.59;101500.94;4974629;29;20280;-87
2021/12/06 13:54:32;;;;;;;85.90;63.47;;;;;;;-0.03;92.28;101495.06;4952813;29;20027;-85
2021/12/06 13:57:01;;;;;;;76.35;58.55;;;;;;;-0.04;91.03;101504.31;4931430;29;20031;-87
2021/12/06 13:59:49;;;;;;;91.70;63.78;;;;;;;0.00;92.10;101505.28;4930504;29;20038;-86
2021/12/06 14:02:20;;;;;;;90.35;64.65;;;;;;;-0.04;91.89;101498.41;4946158;29;20031;-87
2021/12/06 14:04:48;;;;;;;89.28;61.60;;;;;;;0.02;92.48;101500.22;4946573;28;20027;-87
2021/12/06 14:07:17;;;;;;;86.45;64.15;;;;;;;0.03;93.54;101494.38;4964225;28;20055;-87
2021/12/06 14:09:49;;;;;;;88.25;63.97;;;;;;;0.07;93.12;101494.50;4947095;29;20242;-88
2021/12/06 14:12:21;;;;;;;85.57;62.47;;;;;;;0.16;92.70;101492.22;4947358;29;20023;-87
2021/12/06 14:14:49;;;;;;;79.63;61.33;;;;;;;0.05;91.52;101483.47;4951083;28;20122;-87
2021/12/06 14:17:18;;;;;;;82.15;60.78;;;;;;;-0.06;92.26;101490.78;4949197;29;20506;-87
2021/12/06 14:19:44;;;;;;;97.80;65.25;;;;;;;0.02;92.09;101473.28;4945508;29;20031;-87
2021/12/06 14:22:10;;;;;;;;;;;;;;;0.06;91.92;101480.13;4932337;29;20047;-87
2021/12/06 14:24:37;;;;;;;83.85;62.42;;;;;;;-0.04;90.21;101468.91;4980269;28;19921;-87
2021/12/06 14:27:04;;;;;;;78.60;61.08;;;;;;;-0.03;91.10;101480.75;4950241;29;20023;-87
2021/12/06 14:29:32;;;;;;;85.07;62.00;;;;;;;0.05;90.90;101472.50;4949301;29;20019;-87
2021/12/06 14:31:59;;;;;;;82.10;60.78;;;;;;;-0.01;91.41;101450.44;4952148;29;20023;-88
2021/12/06 14:34:29;;;;;;;95.40;63.70;;;;;;;-0.10;90.04;101452.72;4949389;29;20058;-88